| Date | Time | Temp. (oF) | Dew Point (oF) | Rel. Hum. (%) | Press. (in.) | Wind Dir. | Wind Speed (mph) | Hourly Rainfall (in.) |
|
|---|---|---|---|---|---|---|---|---|---|
| 1 | 08/09 | 00:00 | 70 | 69 | 100 | 30.19 | SSW | 0 | 0.00 |
| 2 | 08/08 | 23:00 | 69 | 68 | 100 | 30.19 | NW | 0 | 0.00 |
| 3 | 08/08 | 22:00 | 69 | 68 | 100 | 30.19 | NNW | 0 | 0.00 |
| 4 | 08/08 | 21:00 | 69 | 68 | 100 | 30.17 | SSE | 2 | 0.00 |
| 5 | 08/08 | 20:00 | 70 | 69 | 100 | 30.17 | ESE | 2 | 0.01 |
| 6 | 08/08 | 19:00 | 71 | 70 | 99 | 30.17 | N | 6 | 0.00 |
| 7 | 08/08 | 18:00 | 72 | 71 | 97 | 30.16 | N | 5 | 0.09 |
| 8 | 08/08 | 17:00 | 74 | 68 | 83 | 30.15 | S | 16 | 0.02 |
| 9 | 08/08 | 16:00 | 86 | 73 | 67 | 30.11 | S | 3 | 0.00 |
| 10 | 08/08 | 15:00 | 86 | 75 | 72 | 30.13 | N | 3 | 0.00 |
| 11 | 08/08 | 14:00 | 84 | 75 | 76 | 30.16 | W | 4 | 0.00 |
| 12 | 08/08 | 13:00 | 82 | 75 | 82 | 30.16 | NW | 2 | 0.00 |
| 13 | 08/08 | 12:00 | 81 | 75 | 83 | 30.18 | WSW | 3 | 0.00 |
| 14 | 08/08 | 11:00 | 80 | 76 | 90 | 30.18 | WSW | 4 | 0.00 |
| 15 | 08/08 | 10:00 | 77 | 77 | 100 | 30.18 | S | 2 | 0.00 |
| 16 | 08/08 | 09:00 | 75 | 75 | 100 | 30.17 | E | 0 | 0.00 |
| 17 | 08/08 | 08:00 | 73 | 72 | 100 | 30.17 | NNE | 0 | 0.00 |
| 18 | 08/08 | 07:00 | 72 | 72 | 100 | 30.16 | NNW | 1 | 0.00 |
| 19 | 08/08 | 06:00 | 72 | 72 | 100 | 30.17 | NE | 0 | 0.00 |
| 20 | miss | miss | miss | miss | miss | miss | miss | miss | |
| 21 | 08/08 | 05:04 | 72 | 72 | 100 | 30.16 | NE | 1 | 0.00 |
| 22 | miss | miss | miss | miss | miss | miss | miss | miss | |
| 23 | 08/08 | 05:02 | 72 | 72 | 100 | 30.16 | NNE | 0 | 0.00 |
| 24 | miss | miss | miss | miss | miss | miss | miss | miss | |
| 25 | 08/08 | 05:00 | 72 | 72 | 100 | 30.16 | NNE | 0 | 0.00 |
| 26 | miss | miss | miss | miss | miss | miss | miss | miss | |
| 27 | 08/08 | 05:00 | 72 | 72 | 100 | 30.16 | NNE | 0 | 0.00 |
| 28 | miss | miss | miss | miss | miss | miss | miss | miss | |
| 29 | 08/08 | 05:00 | 72 | 72 | 100 | 30.16 | NNE | 0 | 0.00 |
| 30 | miss | miss | miss | miss | miss | miss | miss | miss | |
| 31 | 08/08 | 05:00 | 72 | 72 | 100 | 30.16 | NNE | 0 | 0.00 |
| 32 | miss | miss | miss | miss | miss | miss | miss | miss | |
| 33 | 08/08 | 05:00 | 72 | 72 | 100 | 30.16 | NNE | 0 | 0.00 |
| 34 | miss | miss | miss | miss | miss | miss | miss | miss | |
| 35 | 08/08 | 05:00 | 72 | 72 | 100 | 30.16 | NNE | 0 | 0.00 |
| 36 | miss | miss | miss | miss | miss | miss | miss | miss | |
| 37 | 08/08 | 05:00 | 72 | 72 | 100 | 30.16 | NNE | 0 | 0.00 |
| 38 | miss | miss | miss | miss | miss | miss | miss | miss | |
| 39 | 08/08 | 05:00 | 72 | 72 | 100 | 30.16 | NNE | 0 | 0.00 |
| 40 | miss | miss | miss | miss | miss | miss | miss | miss | |
| 41 | 08/08 | 05:00 | 72 | 72 | 100 | 30.16 | NNE | 0 | 0.00 |
| 42 | miss | miss | miss | miss | miss | miss | miss | miss | |
| 43 | 08/08 | 05:00 | 72 | 72 | 100 | 30.16 | NNE | 0 | 0.00 |
| 44 | 08/08 | 04:59 | 72 | 72 | 100 | 30.16 | NNE | 1 | 0.00 |
| 45 | 08/08 | 04:00 | 72 | 72 | 100 | 30.15 | NNE | 0 | 0.00 |
| 46 | 08/08 | 03:00 | 72 | 72 | 100 | 30.15 | NNE | 0 | 0.00 |
| 47 | 08/08 | 02:00 | 73 | 72 | 100 | 30.15 | NE | 0 | 0.00 |
| 48 | 08/08 | 01:00 | 73 | 72 | 99 | 30.16 | NNW | 0 | 0.00 |
| 49 | 08/08 | 00:00 | 73 | 72 | 98 | 30.15 | NNW | 0 | -0.12 |
| 50 | 08/07 | 23:00 | 74 | 73 | 98 | 30.15 | NW | 0 | 0.00 |
| 51 | 08/07 | 22:00 | 76 | 75 | 97 | 30.15 | NNW | 0 | 0.00 |
| 52 | 08/07 | 21:00 | 76 | 74 | 96 | 30.14 | NNW | 0 | 0.00 |
| 53 | 08/07 | 20:00 | 77 | 74 | 92 | 30.13 | S | 0 | 0.01 |
| 54 | 08/07 | 19:00 | 78 | 74 | 89 | 30.12 | S | 1 | 0.00 |
| 55 | 08/07 | 18:00 | 79 | 74 | 87 | 30.13 | S | 0 | 0.00 |
| 56 | 08/07 | 17:00 | 81 | 74 | 81 | 30.13 | S | 1 | 0.00 |
| 57 | 08/07 | 16:00 | 82 | 73 | 76 | 30.13 | S | 7 | 0.00 |
| 58 | 08/07 | 15:00 | 84 | 72 | 68 | 30.14 | S | 8 | 0.00 |
| 59 | 08/07 | 14:00 | 84 | 75 | 76 | 30.15 | E | 4 | 0.00 |
| 60 | 08/07 | 13:00 | 82 | 77 | 86 | 30.16 | S | 3 | 0.00 |
| 61 | 08/07 | 12:00 | 78 | 76 | 94 | 30.17 | SSE | 6 | 0.00 |
| 62 | 08/07 | 11:00 | 76 | 76 | 100 | 30.17 | SSE | 1 | 0.01 |
| 63 | 08/07 | 10:00 | 74 | 73 | 100 | 30.19 | ESE | 1 | 0.00 |
| 64 | 08/07 | 09:00 | 72 | 72 | 100 | 30.19 | ENE | 0 | 0.00 |
| 65 | 08/07 | 08:00 | 71 | 70 | 99 | 30.17 | E | 0 | 0.00 |
| 66 | 08/07 | 07:00 | 70 | 69 | 97 | 30.17 | ENE | 0 | 0.00 |
| 67 | 08/07 | 06:00 | 70 | 69 | 97 | 30.15 | ESE | 1 | 0.00 |
| 68 | 08/07 | 05:00 | 70 | 69 | 98 | 30.14 | SSE | 0 | 0.00 |
| 69 | 08/07 | 04:00 | 70 | 69 | 97 | 30.13 | NE | 1 | 0.00 |
| 70 | 08/07 | 03:00 | 70 | 68 | 96 | 30.13 | ESE | 0 | 0.00 |
| 71 | 08/07 | 02:00 | 71 | 69 | 95 | 30.14 | NE | 1 | 0.00 |
| 72 | 08/07 | 01:00 | 71 | 68 | 92 | 30.14 | NNW | 0 | 0.00 |
| 73 | 08/07 | 00:00 | 72 | 69 | 91 | 30.15 | WNW | 0 | -0.02 |
| 74 | 08/06 | 23:00 | 73 | 67 | 83 | 30.15 | NNW | 0 | 0.00 |